International Virtual Aviation Organisation

Russian Federation and Kazakhstan MCD

 

Карточка аэропорта UHMA

Внимание!
Информация на этой странице в стадии наполнения.
Если вы не увидели какой-то информации, или заметили неточность - пожалуйста сообщите нам!
Спасибо!
Команда RU-STAFF
Название аэропортаУгольный
Название аэропорта (англ.)Ugolny
Превышение194 ft. (59.1 m.)
Координаты64°44.1', 177°44.28'
Высота перехода1600m
Эшелон переходаQFE>=755mm:FL070; QFE<755=>728:FL080; QFE<728:FL090
Коды ответчика6501-6537
Зона ОрВДМагадан РПИ (UHMM)
Данные METARUHMA 211030Z 13006MPS 090V170 9999 FEW011 BKN023 16/14 Q0999 R01/19//60 NOSIG RMK END R01/14006MPS MT OBSC QFE745/0994
Проноз погоды (TAF)UERR 210800Z 2109/2209 09003G08MPS CAVOK= UHMA 210745Z 2109/2209 15007G12MPS 5000 -RA SCT003 BKN020 TEMPO 2109/2111 01003MPS 1000 SHRA BR BKN003 BKN010CB TEMPO 2111/2209 18011G16MPS 1000 SHRA BR VV004
NOTAMshow/hide NOTAM
AWOS   TABLE

Информация о ВПП


Диспетчерские позиции

Позывной Наименование органа УВД Частота
UHMA_APPАнадырь-Подход124.0
UHMA_TWRАнадырь-Старт124.0



Спутниковое изображение